createdAt,value
2023-05-16T00:00:12.771Z,6.30
2023-05-16T00:01:12.783Z,6.27
2023-05-16T00:02:12.849Z,6.17
2023-05-16T00:03:12.901Z,6.24
2023-05-16T00:04:12.768Z,6.25
2023-05-16T00:05:12.724Z,6.16
2023-05-16T00:06:12.722Z,6.30
2023-05-16T00:07:12.742Z,6.21
2023-05-16T00:08:12.699Z,6.13
2023-05-16T00:09:12.675Z,6.17
2023-05-16T00:10:12.671Z,6.05
2023-05-16T00:11:12.661Z,6.24
2023-05-16T00:12:12.643Z,6.10
2023-05-16T00:13:12.662Z,5.99
2023-05-16T00:14:12.634Z,6.06
2023-05-16T00:15:12.625Z,6.11
2023-05-16T00:16:12.639Z,6.02
2023-05-16T00:17:12.659Z,6.03
2023-05-16T00:18:12.712Z,6.14
2023-05-16T00:19:12.636Z,6.13
2023-05-16T00:20:12.559Z,6.02
2023-05-16T00:21:12.562Z,6.02
2023-05-16T00:22:12.533Z,5.98
2023-05-16T00:23:12.536Z,5.93
2023-05-16T00:24:12.514Z,5.96
2023-05-16T00:25:12.529Z,5.90
2023-05-16T00:26:12.503Z,5.95
2023-05-16T00:27:12.485Z,6.01
2023-05-16T00:28:12.491Z,5.98
2023-05-16T00:29:12.463Z,5.85
2023-05-16T00:30:12.457Z,5.88
2023-05-16T00:31:12.474Z,5.84
2023-05-16T00:32:12.502Z,5.83
2023-05-16T00:33:12.494Z,5.90
2023-05-16T00:34:12.547Z,5.87
2023-05-16T00:35:12.436Z,5.92
2023-05-16T00:36:12.384Z,5.80
2023-05-16T00:37:12.391Z,5.87
2023-05-16T00:38:12.376Z,5.80
2023-05-16T00:39:12.370Z,5.80
2023-05-16T00:40:12.345Z,5.74
2023-05-16T00:41:12.332Z,5.88
2023-05-16T00:42:12.333Z,5.80
2023-05-16T00:43:12.326Z,5.77
2023-05-16T00:44:12.297Z,5.78
2023-05-16T00:45:12.288Z,5.74
2023-05-16T00:46:12.363Z,5.69
2023-05-16T00:47:12.270Z,5.77
2023-05-16T00:48:12.300Z,5.80
2023-05-16T00:49:12.294Z,5.78
2023-05-16T00:50:12.257Z,5.70
2023-05-16T00:51:12.224Z,5.47
2023-05-16T00:52:12.218Z,5.67
2023-05-16T00:53:12.935Z,5.45
2023-05-16T00:54:12.209Z,5.63
2023-05-16T00:55:12.210Z,5.47
2023-05-16T00:56:12.168Z,5.56
2023-05-16T00:57:12.161Z,5.48
2023-05-16T00:58:12.160Z,5.49
2023-05-16T00:59:12.138Z,5.51
2023-05-16T01:00:12.245Z,5.45
2023-05-16T01:01:12.245Z,5.44
2023-05-16T01:02:12.163Z,5.45
2023-05-16T01:03:12.185Z,5.41
2023-05-16T01:04:12.079Z,5.47
2023-05-16T01:05:12.074Z,5.41
2023-05-16T01:06:12.081Z,5.44
2023-05-16T01:07:12.112Z,5.52
2023-05-16T01:08:12.045Z,5.44
2023-05-16T01:09:12.031Z,5.47
2023-05-16T01:10:12.033Z,5.40
2023-05-16T01:11:12.008Z,5.48
2023-05-16T01:12:12.013Z,5.48
2023-05-16T01:13:12.003Z,5.40
2023-05-16T01:14:12.007Z,5.38
2023-05-16T01:15:11.999Z,5.38
2023-05-16T01:16:12.016Z,5.38
2023-05-16T01:17:11.942Z,5.45
2023-05-16T01:18:12.017Z,5.35
2023-05-16T01:19:11.933Z,5.47
2023-05-16T01:20:11.920Z,5.52
2023-05-16T01:21:11.891Z,5.55
2023-05-16T01:22:11.905Z,5.47
2023-05-16T01:23:11.869Z,5.45
2023-05-16T01:24:11.902Z,5.62
2023-05-16T01:25:11.847Z,5.55
2023-05-16T01:26:11.853Z,5.47
2023-05-16T01:27:11.826Z,5.60
2023-05-16T01:28:11.818Z,5.65
2023-05-16T01:29:11.809Z,5.51
2023-05-16T01:30:11.829Z,5.47
2023-05-16T01:31:11.812Z,5.56
2023-05-16T01:32:11.774Z,5.51
2023-05-16T01:33:11.805Z,5.49
2023-05-16T01:34:11.752Z,5.58
2023-05-16T01:35:11.739Z,5.59
2023-05-16T01:36:11.769Z,5.51
2023-05-16T01:37:11.716Z,5.48
2023-05-16T01:38:11.743Z,5.48
2023-05-16T01:39:11.740Z,5.48
2023-05-16T01:40:11.691Z,5.65
2023-05-16T01:41:11.676Z,5.42
2023-05-16T01:42:11.713Z,5.56
2023-05-16T01:43:11.662Z,5.59
2023-05-16T01:44:11.643Z,5.67
2023-05-16T01:45:11.639Z,5.60
2023-05-16T01:46:11.654Z,5.60
2023-05-16T01:47:11.642Z,5.59
2023-05-16T01:48:11.641Z,5.55
2023-05-16T01:49:11.587Z,5.58
2023-05-16T01:50:11.608Z,5.65
2023-05-16T01:51:11.566Z,5.58
2023-05-16T01:52:11.559Z,5.58
2023-05-16T01:53:11.545Z,5.65
2023-05-16T01:54:11.568Z,5.52
2023-05-16T01:55:11.522Z,5.51
2023-05-16T01:56:11.532Z,5.63
2023-05-16T01:57:11.500Z,5.63
2023-05-16T01:58:11.491Z,5.69
2023-05-16T01:59:11.477Z,5.56
2023-05-16T02:00:11.502Z,5.55
2023-05-16T02:01:11.528Z,5.62
2023-05-16T02:02:11.483Z,5.65
2023-05-16T02:03:11.490Z,5.52
2023-05-16T02:04:11.521Z,5.56
2023-05-16T02:05:11.419Z,5.55
2023-05-16T02:06:11.429Z,5.63
2023-05-16T02:07:11.400Z,5.55
2023-05-16T02:08:11.396Z,5.45
2023-05-16T02:09:11.381Z,5.56
2023-05-16T02:10:11.388Z,5.58
2023-05-16T02:11:11.358Z,5.47
2023-05-16T02:12:11.368Z,5.52
2023-05-16T02:13:11.333Z,5.49
2023-05-16T02:14:11.331Z,5.59
2023-05-16T02:15:11.308Z,5.49
2023-05-16T02:16:11.370Z,5.63
2023-05-16T02:17:11.378Z,5.60
2023-05-16T02:18:11.368Z,5.55
2023-05-16T02:19:11.299Z,5.49
2023-05-16T02:20:11.254Z,5.65
2023-05-16T02:21:11.239Z,5.52
2023-05-16T02:22:11.233Z,5.55
2023-05-16T02:23:11.219Z,5.63
2023-05-16T02:24:11.247Z,5.56
2023-05-16T02:25:11.210Z,5.52
2023-05-16T02:26:11.214Z,5.55
2023-05-16T02:27:11.177Z,5.45
2023-05-16T02:28:11.169Z,5.52
2023-05-16T02:29:11.166Z,5.49
2023-05-16T02:30:11.175Z,5.59
2023-05-16T02:31:11.171Z,5.44
2023-05-16T02:32:11.124Z,5.45
2023-05-16T02:33:11.183Z,5.58
2023-05-16T02:34:11.133Z,5.47
2023-05-16T02:35:11.107Z,5.51
2023-05-16T02:36:11.120Z,5.40
2023-05-16T02:37:13.196Z,5.59
2023-05-16T02:38:11.084Z,5.51
2023-05-16T02:39:11.050Z,5.44
2023-05-16T02:40:11.035Z,5.55
2023-05-16T02:41:11.020Z,5.56
2023-05-16T02:42:11.043Z,5.60
2023-05-16T02:43:11.039Z,5.48
2023-05-16T02:44:11.020Z,5.52
2023-05-16T02:45:10.986Z,5.44
2023-05-16T02:46:10.998Z,5.51
2023-05-16T02:47:10.996Z,5.51
2023-05-16T02:48:10.995Z,5.59
2023-05-16T02:49:10.934Z,5.63
2023-05-16T02:50:10.929Z,5.55
2023-05-16T02:51:10.914Z,5.55
2023-05-16T02:52:10.904Z,5.48
2023-05-16T02:53:10.901Z,5.59
2023-05-16T02:54:10.929Z,5.51
2023-05-16T02:55:21.760Z,5.58
2023-05-16T02:56:11.871Z,5.56
2023-05-16T02:57:10.848Z,5.62
2023-05-16T02:58:10.865Z,5.47
2023-05-16T02:59:10.829Z,5.48
2023-05-16T03:00:10.848Z,5.47
2023-05-16T03:01:10.873Z,5.52
2023-05-16T03:02:10.864Z,5.48
2023-05-16T03:03:10.895Z,5.47
2023-05-16T03:04:10.957Z,5.47
2023-05-16T03:05:10.769Z,5.47
2023-05-16T03:06:10.787Z,5.38
2023-05-16T03:07:10.737Z,5.29
2023-05-16T03:08:10.740Z,5.35
2023-05-16T03:09:10.734Z,5.37
2023-05-16T03:10:10.709Z,5.41
2023-05-16T03:11:10.703Z,5.30
2023-05-16T03:12:10.716Z,5.30
2023-05-16T03:13:10.673Z,5.27
2023-05-16T03:14:10.689Z,5.19
2023-05-16T03:15:10.654Z,5.38
2023-05-16T03:16:10.724Z,5.24
2023-05-16T03:17:10.629Z,5.24
2023-05-16T03:18:10.686Z,5.27
2023-05-16T03:19:10.622Z,5.12
2023-05-16T03:20:10.602Z,5.20
2023-05-16T03:21:10.588Z,5.23
2023-05-16T03:22:10.960Z,5.20
2023-05-16T03:23:10.565Z,5.15
2023-05-16T03:24:10.608Z,5.12
2023-05-16T03:25:10.549Z,5.12
2023-05-16T03:26:10.539Z,5.20
2023-05-16T03:27:10.555Z,5.14
2023-05-16T03:28:10.747Z,5.11
2023-05-16T03:29:10.511Z,5.19
2023-05-16T03:30:10.538Z,5.14
2023-05-16T03:31:10.537Z,5.15
2023-05-16T03:32:10.498Z,5.22
2023-05-16T03:33:10.529Z,5.12
2023-05-16T03:34:10.458Z,5.20
2023-05-16T03:35:10.438Z,5.15
2023-05-16T03:36:10.483Z,5.09
2023-05-16T03:37:10.418Z,5.17
2023-05-16T03:38:10.423Z,5.11
2023-05-16T03:39:10.408Z,5.15
2023-05-16T03:40:10.389Z,5.15
2023-05-16T03:41:10.388Z,5.08
2023-05-16T03:42:10.387Z,5.14
2023-05-16T03:43:10.367Z,5.05
2023-05-16T03:44:10.345Z,5.23
2023-05-16T03:45:10.331Z,5.17
2023-05-16T03:46:10.389Z,5.20
2023-05-16T03:47:10.323Z,5.24
2023-05-16T03:48:10.377Z,5.11
2023-05-16T03:49:10.296Z,5.17
2023-05-16T03:50:10.279Z,5.20
2023-05-16T03:51:10.269Z,5.29
2023-05-16T03:52:10.260Z,5.32
2023-05-16T03:53:10.257Z,5.26
2023-05-16T03:54:10.268Z,5.30
2023-05-16T03:55:10.223Z,5.29
2023-05-16T03:56:10.228Z,5.35
2023-05-16T03:57:10.202Z,5.27
2023-05-16T03:58:10.202Z,5.26
2023-05-16T03:59:10.179Z,5.32
2023-05-16T04:00:10.190Z,5.38
2023-05-16T04:01:10.158Z,5.29
2023-05-16T04:02:10.226Z,5.35
2023-05-16T04:03:10.167Z,5.35
2023-05-16T04:04:10.134Z,5.32
2023-05-16T04:05:10.228Z,5.26
2023-05-16T04:06:10.186Z,5.26
2023-05-16T04:07:10.099Z,5.33
2023-05-16T04:08:10.111Z,5.41
2023-05-16T04:09:10.076Z,5.37
2023-05-16T04:10:10.067Z,5.45
2023-05-16T04:11:10.050Z,5.33
2023-05-16T04:12:10.070Z,5.41
2023-05-16T04:13:10.046Z,5.41
2023-05-16T04:14:10.084Z,5.42
2023-05-16T04:15:10.005Z,5.45
2023-05-16T04:16:10.012Z,5.37
2023-05-16T04:17:10.034Z,5.40
2023-05-16T04:18:10.074Z,5.38
2023-05-16T04:19:09.997Z,5.41
2023-05-16T04:20:09.960Z,5.52
2023-05-16T04:21:09.943Z,5.45
2023-05-16T04:22:09.934Z,5.60
2023-05-16T04:23:09.930Z,5.47
2023-05-16T04:24:09.950Z,5.47
2023-05-16T04:25:09.898Z,5.48
2023-05-16T04:26:09.892Z,5.48
2023-05-16T04:27:09.953Z,5.56
2023-05-16T04:28:09.867Z,5.49
2023-05-16T04:29:09.856Z,5.55
2023-05-16T04:30:09.863Z,5.60
2023-05-16T04:31:09.857Z,5.42
2023-05-16T04:32:09.837Z,5.44
2023-05-16T04:33:09.908Z,5.59
2023-05-16T04:34:09.828Z,5.56
2023-05-16T04:35:09.794Z,5.37
2023-05-16T04:36:09.812Z,5.49
2023-05-16T04:37:09.773Z,5.52
2023-05-16T04:38:09.772Z,5.38
2023-05-16T04:39:09.763Z,5.56
2023-05-16T04:40:09.741Z,5.47
2023-05-16T04:41:09.727Z,5.58
2023-05-16T04:42:09.736Z,5.45
2023-05-16T04:43:09.713Z,5.52
2023-05-16T04:44:09.700Z,5.51
2023-05-16T04:45:09.726Z,5.66
2023-05-16T04:46:09.719Z,5.55
2023-05-16T04:47:09.669Z,5.56
2023-05-16T04:48:09.920Z,5.60
2023-05-16T04:49:09.650Z,5.59
2023-05-16T04:50:09.657Z,5.49
2023-05-16T04:51:09.636Z,5.65
2023-05-16T04:52:09.613Z,5.48
2023-05-16T04:53:09.601Z,5.58
2023-05-16T04:54:09.608Z,5.60
2023-05-16T04:55:09.580Z,5.56
2023-05-16T04:56:09.570Z,5.65
2023-05-16T04:57:09.589Z,5.51
2023-05-16T04:58:09.551Z,5.49
2023-05-16T04:59:09.536Z,5.56
2023-05-16T05:00:09.575Z,5.52
2023-05-16T05:01:09.632Z,5.59
2023-05-16T05:02:09.579Z,5.62
2023-05-16T05:03:09.543Z,5.42
2023-05-16T05:04:09.489Z,5.63
2023-05-16T05:05:09.580Z,5.55
2023-05-16T05:06:09.513Z,5.56
2023-05-16T05:07:09.448Z,5.56
2023-05-16T05:08:09.452Z,5.60
2023-05-16T05:09:09.426Z,5.62
2023-05-16T05:10:09.439Z,5.66
2023-05-16T05:11:09.418Z,5.56
2023-05-16T05:12:09.468Z,5.66
2023-05-16T05:13:09.386Z,5.62
2023-05-16T05:14:09.377Z,5.75
2023-05-16T05:15:09.361Z,5.80
2023-05-16T05:16:09.352Z,5.75
2023-05-16T05:17:09.424Z,5.92
2023-05-16T05:18:09.501Z,5.84
2023-05-16T05:19:09.350Z,5.99
2023-05-16T05:20:09.397Z,5.98
2023-05-16T05:21:09.434Z,5.88
2023-05-16T05:22:09.311Z,5.95
2023-05-16T05:23:09.272Z,5.85
2023-05-16T05:24:09.305Z,5.92
2023-05-16T05:25:09.278Z,5.93
2023-05-16T05:26:09.245Z,5.88
2023-05-16T05:27:09.248Z,5.96
2023-05-16T05:28:09.259Z,5.99
2023-05-16T05:29:09.253Z,5.98
2023-05-16T05:30:09.234Z,5.84
2023-05-16T05:31:09.201Z,6.03
2023-05-16T05:32:09.288Z,6.03
2023-05-16T05:33:09.208Z,6.11
2023-05-16T05:34:09.172Z,6.10
2023-05-16T05:35:09.148Z,6.11
2023-05-16T05:36:09.158Z,6.14
2023-05-16T05:37:09.125Z,6.10
2023-05-16T05:38:09.155Z,6.20
2023-05-16T05:39:09.123Z,5.99
2023-05-16T05:40:09.108Z,6.01
2023-05-16T05:41:09.081Z,5.87
2023-05-16T05:42:09.126Z,5.90
2023-05-16T05:43:09.059Z,5.95
2023-05-16T05:44:09.053Z,5.84
2023-05-16T05:45:09.049Z,5.81
2023-05-16T05:46:09.176Z,5.88
2023-05-16T05:47:09.025Z,5.95
2023-05-16T05:48:09.064Z,5.87
2023-05-16T05:49:08.995Z,5.87
2023-05-16T05:50:08.986Z,5.78
2023-05-16T05:51:08.972Z,5.70
2023-05-16T05:52:08.969Z,5.88
2023-05-16T05:53:08.946Z,5.84
2023-05-16T05:54:09.028Z,5.78
2023-05-16T05:55:08.925Z,5.92
2023-05-16T05:56:08.909Z,5.78
2023-05-16T05:57:08.923Z,5.96
2023-05-16T05:58:08.902Z,5.92
2023-05-16T05:59:08.886Z,5.87
2023-05-16T06:00:08.884Z,6.06
2023-05-16T06:01:08.871Z,6.05
2023-05-16T06:02:08.886Z,6.16
2023-05-16T06:03:08.902Z,6.17
2023-05-16T06:04:08.830Z,6.06
2023-05-16T06:05:08.853Z,6.08
2023-05-16T06:06:08.818Z,6.28
2023-05-16T06:07:08.804Z,6.40
2023-05-16T06:08:08.794Z,6.39
2023-05-16T06:09:08.786Z,6.50
2023-05-16T06:10:08.784Z,6.40
2023-05-16T06:11:08.756Z,6.32
2023-05-16T06:12:08.755Z,6.38
2023-05-16T06:13:08.746Z,6.45
2023-05-16T06:14:08.736Z,6.30
2023-05-16T06:15:08.716Z,6.25
2023-05-16T06:16:09.648Z,6.06
2023-05-16T06:17:08.768Z,6.14
2023-05-16T06:18:08.765Z,5.96
2023-05-16T06:19:08.766Z,6.02
2023-05-16T06:20:08.684Z,6.16
2023-05-16T06:21:08.644Z,5.99
2023-05-16T06:22:08.647Z,5.92
2023-05-16T06:23:08.624Z,6.05
2023-05-16T06:24:09.376Z,5.98
2023-05-16T06:25:08.607Z,5.93
2023-05-16T06:26:08.818Z,6.05
2023-05-16T06:27:08.579Z,6.01
2023-05-16T06:28:08.602Z,5.95
2023-05-16T06:29:08.597Z,6.10
2023-05-16T06:30:08.545Z,5.95
2023-05-16T06:31:08.574Z,5.99
2023-05-16T06:32:10.337Z,5.96
2023-05-16T06:33:08.601Z,5.93
2023-05-16T06:34:08.509Z,6.01
2023-05-16T06:35:08.497Z,6.03
2023-05-16T06:36:08.481Z,5.93
2023-05-16T06:37:08.635Z,6.03
2023-05-16T06:38:08.474Z,5.93
2023-05-16T06:39:08.464Z,5.99
2023-05-16T06:40:08.464Z,5.80
2023-05-16T06:41:08.427Z,5.92
2023-05-16T06:42:08.457Z,5.93
2023-05-16T06:43:08.453Z,5.92
2023-05-16T06:44:08.392Z,6.01
2023-05-16T06:45:08.381Z,5.90
2023-05-16T06:46:08.410Z,5.93
2023-05-16T06:47:08.364Z,5.90
2023-05-16T06:48:08.493Z,6.03
2023-05-16T06:49:08.360Z,6.13
2023-05-16T06:50:08.352Z,6.14
2023-05-16T06:51:08.320Z,6.17
2023-05-16T06:52:08.320Z,6.21
2023-05-16T06:53:08.317Z,6.13
2023-05-16T06:54:08.295Z,6.32
2023-05-16T06:55:08.294Z,6.16
2023-05-16T06:56:08.399Z,6.14
2023-05-16T06:57:08.281Z,6.16
2023-05-16T06:58:08.295Z,6.16
2023-05-16T06:59:08.245Z,6.35
2023-05-16T07:00:08.218Z,6.17
2023-05-16T07:01:08.247Z,6.25
2023-05-16T07:02:08.231Z,6.42
2023-05-16T07:03:08.414Z,6.21
2023-05-16T07:04:08.443Z,6.06
2023-05-16T07:05:08.179Z,6.11
2023-05-16T07:06:08.175Z,6.13
2023-05-16T07:07:08.284Z,6.08
2023-05-16T07:08:08.221Z,6.11
2023-05-16T07:09:08.128Z,6.11
2023-05-16T07:10:08.142Z,6.13
2023-05-16T07:11:08.113Z,6.05
2023-05-16T07:12:08.098Z,6.02
2023-05-16T07:13:08.122Z,6.05
2023-05-16T07:14:08.230Z,6.14
2023-05-16T07:15:08.083Z,6.21
2023-05-16T07:16:08.133Z,6.30
2023-05-16T07:17:08.162Z,6.28
2023-05-16T07:18:08.140Z,6.17
2023-05-16T07:19:08.164Z,6.33
2023-05-16T07:20:08.054Z,6.24
2023-05-16T07:21:08.030Z,6.27
2023-05-16T07:22:07.977Z,6.27
2023-05-16T07:23:07.986Z,6.33
2023-05-16T07:24:07.967Z,6.25
2023-05-16T07:25:07.951Z,6.21
2023-05-16T07:26:07.936Z,6.24
2023-05-16T07:27:07.946Z,6.40
2023-05-16T07:28:07.928Z,6.30
2023-05-16T07:29:07.912Z,6.19
2023-05-16T07:30:07.948Z,6.21
2023-05-16T07:31:07.915Z,6.25
2023-05-16T07:32:08.077Z,6.30
2023-05-16T07:33:07.966Z,6.19
2023-05-16T07:34:07.864Z,6.03
2023-05-16T07:35:07.850Z,6.16
2023-05-16T07:36:16.006Z,6.20
2023-05-16T07:37:08.821Z,6.25
2023-05-16T07:38:07.814Z,6.17
2023-05-16T07:39:07.819Z,6.13
2023-05-16T07:40:07.782Z,6.19
2023-05-16T07:41:07.784Z,6.13
2023-05-16T07:42:07.758Z,6.16
2023-05-16T07:43:07.763Z,6.03
2023-05-16T07:44:07.741Z,6.05
2023-05-16T07:45:07.766Z,6.14
2023-05-16T07:46:07.862Z,6.13
2023-05-16T07:47:07.747Z,6.05
2023-05-16T07:48:07.809Z,6.13
2023-05-16T07:49:07.689Z,6.08
2023-05-16T07:50:07.688Z,6.19
2023-05-16T07:51:07.709Z,6.13
2023-05-16T07:52:07.654Z,6.24
2023-05-16T07:53:07.641Z,6.13
2023-05-16T07:54:07.637Z,6.20
2023-05-16T07:55:07.622Z,6.25
2023-05-16T07:56:08.561Z,6.24
2023-05-16T07:57:07.652Z,6.14
2023-05-16T07:58:07.588Z,6.11
2023-05-16T07:59:07.599Z,6.08
2023-05-16T08:00:07.561Z,6.14
2023-05-16T08:01:07.553Z,6.25
2023-05-16T08:02:07.626Z,6.25
2023-05-16T08:03:07.681Z,6.17
2023-05-16T08:04:07.528Z,6.14
2023-05-16T08:05:07.528Z,6.13
2023-05-16T08:06:07.538Z,6.14
2023-05-16T08:07:07.487Z,6.24
2023-05-16T08:08:07.489Z,6.20
2023-05-16T08:09:07.482Z,6.25
2023-05-16T08:10:07.453Z,6.19
2023-05-16T08:11:07.446Z,6.24
2023-05-16T08:12:07.428Z,6.16
2023-05-16T08:13:07.421Z,6.08
2023-05-16T08:14:07.428Z,6.13
2023-05-16T08:15:07.458Z,6.11
2023-05-16T08:16:07.399Z,6.17
2023-05-16T08:17:07.381Z,6.14
2023-05-16T08:18:07.487Z,6.24
2023-05-16T08:19:07.377Z,6.11
2023-05-16T08:20:07.354Z,6.21
2023-05-16T08:21:07.351Z,6.32
2023-05-16T08:22:07.333Z,6.13
2023-05-16T08:23:07.317Z,6.16
2023-05-16T08:24:07.355Z,6.30
2023-05-16T08:25:07.326Z,6.16
2023-05-16T08:26:07.278Z,6.19
2023-05-16T08:27:07.284Z,6.32
2023-05-16T08:28:07.274Z,6.36
2023-05-16T08:29:07.250Z,6.40
2023-05-16T08:30:07.273Z,6.51
2023-05-16T08:31:07.247Z,6.55
2023-05-16T08:32:07.215Z,6.57
2023-05-16T08:33:07.295Z,6.53
2023-05-16T08:34:07.234Z,6.53
2023-05-16T08:35:07.189Z,6.65
2023-05-16T08:36:07.253Z,6.76
2023-05-16T08:37:07.205Z,6.53
2023-05-16T08:38:07.154Z,6.72
2023-05-16T08:39:07.164Z,6.69
2023-05-16T08:40:07.140Z,6.64
2023-05-16T08:41:07.125Z,6.78
2023-05-16T08:42:07.122Z,6.79
2023-05-16T08:43:07.093Z,6.79
2023-05-16T08:44:07.085Z,6.60
2023-05-16T08:45:07.197Z,6.75
2023-05-16T08:46:07.156Z,6.71
2023-05-16T08:47:07.101Z,6.72
2023-05-16T08:48:10.119Z,6.63
2023-05-16T08:49:07.044Z,6.75
2023-05-16T08:50:07.047Z,6.68
2023-05-16T08:51:07.007Z,6.68
2023-05-16T08:52:07.032Z,6.60
2023-05-16T08:53:06.993Z,6.65
2023-05-16T08:54:06.994Z,6.64
2023-05-16T08:55:11.059Z,6.71
2023-05-16T08:56:08.006Z,6.63
2023-05-16T08:57:07.008Z,6.63
2023-05-16T08:58:07.008Z,6.72
2023-05-16T08:59:07.002Z,6.71
2023-05-16T09:00:06.992Z,6.69
2023-05-16T09:01:07.028Z,6.71
2023-05-16T09:02:08.902Z,6.78
2023-05-16T09:03:07.962Z,6.68
2023-05-16T09:04:07.996Z,6.72
2023-05-16T09:05:06.933Z,6.63
2023-05-16T09:06:08.132Z,6.54
2023-05-16T09:07:06.886Z,6.64
2023-05-16T09:08:07.882Z,6.71
2023-05-16T09:09:07.369Z,6.73
2023-05-16T09:10:06.968Z,6.71
2023-05-16T09:11:07.366Z,6.79
2023-05-16T09:12:06.851Z,6.73
2023-05-16T09:13:06.834Z,6.78
2023-05-16T09:14:06.816Z,6.71
2023-05-16T09:15:07.372Z,6.72
2023-05-16T09:16:07.398Z,6.81
2023-05-16T09:17:06.825Z,6.82
2023-05-16T09:18:06.793Z,6.86
2023-05-16T09:19:06.856Z,6.86
2023-05-16T09:20:07.375Z,7.00
2023-05-16T09:21:06.768Z,7.04
2023-05-16T09:22:06.883Z,6.96
2023-05-16T09:23:06.712Z,7.08
2023-05-16T09:24:07.373Z,7.16
2023-05-16T09:25:08.649Z,7.18
2023-05-16T09:26:08.374Z,7.15
2023-05-16T09:27:06.673Z,7.16
2023-05-16T09:28:06.696Z,7.12
2023-05-16T09:29:06.655Z,7.26
2023-05-16T09:30:06.643Z,7.36
2023-05-16T09:31:06.706Z,7.41
2023-05-16T09:32:06.629Z,7.42
2023-05-16T09:33:06.631Z,7.44
2023-05-16T09:34:06.619Z,7.26
2023-05-16T09:35:06.584Z,7.32
2023-05-16T09:36:06.586Z,7.42
2023-05-16T09:37:06.574Z,7.39
2023-05-16T09:38:06.581Z,7.23
2023-05-16T09:39:06.695Z,7.36
2023-05-16T09:40:06.537Z,7.48
2023-05-16T09:41:06.532Z,7.50
2023-05-16T09:42:09.361Z,7.41
2023-05-16T09:43:06.534Z,7.51
2023-05-16T09:44:06.542Z,7.52
2023-05-16T09:45:07.388Z,7.52
2023-05-16T09:46:06.516Z,7.54
2023-05-16T09:47:06.458Z,7.63
2023-05-16T09:48:06.704Z,7.70
2023-05-16T09:49:07.446Z,7.60
2023-05-16T09:50:06.416Z,7.57
2023-05-16T09:51:06.432Z,7.54
2023-05-16T09:52:06.409Z,7.44
2023-05-16T09:53:06.428Z,7.52
2023-05-16T09:54:06.540Z,7.50
2023-05-16T09:55:06.375Z,7.51
2023-05-16T09:56:06.371Z,7.54
2023-05-16T09:57:06.361Z,7.60
2023-05-16T09:58:06.335Z,7.62
2023-05-16T09:59:06.339Z,7.63
2023-05-16T10:00:06.876Z,7.41
2023-05-16T10:01:06.875Z,7.63
2023-05-16T10:02:06.387Z,7.79
2023-05-16T10:03:06.630Z,7.70
2023-05-16T10:04:06.355Z,7.73
2023-05-16T10:05:06.269Z,7.82
2023-05-16T10:06:06.249Z,7.69
2023-05-16T10:07:06.871Z,7.86
2023-05-16T10:08:06.221Z,7.77
2023-05-16T10:09:06.217Z,7.69
2023-05-16T10:10:07.109Z,7.85
2023-05-16T10:11:06.199Z,7.74
2023-05-16T10:12:06.180Z,7.74
2023-05-16T10:13:06.178Z,7.66
2023-05-16T10:14:07.941Z,7.79
2023-05-16T10:15:07.178Z,7.69
2023-05-16T10:16:06.159Z,7.70
2023-05-16T10:17:06.128Z,7.58
2023-05-16T10:18:06.148Z,7.52
2023-05-16T10:19:06.175Z,7.55
2023-05-16T10:20:07.876Z,7.63
2023-05-16T10:21:06.880Z,7.66
2023-05-16T10:22:06.075Z,7.62
2023-05-16T10:23:06.068Z,7.54
2023-05-16T10:24:05.997Z,7.69
2023-05-16T10:25:05.984Z,7.66
2023-05-16T10:26:06.072Z,7.79
2023-05-16T10:27:06.001Z,7.69
2023-05-16T10:28:05.948Z,7.66
2023-05-16T10:29:05.945Z,7.67
2023-05-16T10:30:05.939Z,7.71
2023-05-16T10:31:05.924Z,7.60
2023-05-16T10:32:05.951Z,7.79
2023-05-16T10:33:05.949Z,7.74
2023-05-16T10:34:05.882Z,7.60
2023-05-16T10:35:05.875Z,7.70
2023-05-16T10:36:05.866Z,7.76
2023-05-16T10:37:05.867Z,7.66
2023-05-16T10:38:07.465Z,7.85
2023-05-16T10:39:05.849Z,7.88
2023-05-16T10:40:05.863Z,7.84
2023-05-16T10:41:05.831Z,7.71
2023-05-16T10:42:05.882Z,7.66
2023-05-16T10:43:05.789Z,7.73
2023-05-16T10:44:05.773Z,7.69
2023-05-16T10:45:06.238Z,7.74
2023-05-16T10:46:05.872Z,7.88
2023-05-16T10:47:05.751Z,7.70
2023-05-16T10:48:05.855Z,7.76
2023-05-16T10:49:05.720Z,7.81
2023-05-16T10:50:05.706Z,7.88
2023-05-16T10:51:05.730Z,7.77
2023-05-16T10:52:05.686Z,7.70
2023-05-16T10:53:05.702Z,7.69
2023-05-16T10:54:05.666Z,7.88
2023-05-16T10:55:05.663Z,7.89
2023-05-16T10:56:05.643Z,7.96
2023-05-16T10:57:05.661Z,7.88
2023-05-16T10:58:05.695Z,7.74
2023-05-16T10:59:05.614Z,7.81
2023-05-16T11:00:05.613Z,7.91
2023-05-16T11:01:05.618Z,7.88
2023-05-16T11:02:05.602Z,7.89
2023-05-16T11:03:05.728Z,7.99
2023-05-16T11:04:05.588Z,7.96
2023-05-16T11:05:05.550Z,8.00
2023-05-16T11:06:05.531Z,7.95
2023-05-16T11:07:05.575Z,8.13
2023-05-16T11:08:05.514Z,8.13
2023-05-16T11:09:05.527Z,8.28
2023-05-16T11:10:05.519Z,8.29
2023-05-16T11:11:05.482Z,8.28
2023-05-16T11:12:05.478Z,8.18
2023-05-16T11:13:05.467Z,8.25
2023-05-16T11:14:05.465Z,8.39
2023-05-16T11:15:05.689Z,8.28
2023-05-16T11:16:05.429Z,8.22
2023-05-16T11:17:05.428Z,8.21
2023-05-16T11:18:05.415Z,8.34
2023-05-16T11:19:05.464Z,8.29
2023-05-16T11:20:05.383Z,8.28
2023-05-16T11:21:05.431Z,8.27
2023-05-16T11:22:05.359Z,8.32
2023-05-16T11:23:05.362Z,8.42
2023-05-16T11:24:05.352Z,8.29
2023-05-16T11:25:05.437Z,8.29
2023-05-16T11:26:06.283Z,8.43
2023-05-16T11:27:05.333Z,8.42
2023-05-16T11:28:05.309Z,8.54
2023-05-16T11:29:05.292Z,8.37
2023-05-16T11:30:05.365Z,8.34
2023-05-16T11:31:05.331Z,8.47
2023-05-16T11:32:05.353Z,8.47
2023-05-16T11:33:05.326Z,8.58
2023-05-16T11:34:05.244Z,8.57
2023-05-16T11:35:05.260Z,8.57
2023-05-16T11:36:15.261Z,8.50
2023-05-16T11:37:06.208Z,8.52
2023-05-16T11:38:05.193Z,8.50
2023-05-16T11:39:05.194Z,8.47
2023-05-16T11:40:05.385Z,8.43
2023-05-16T11:41:05.162Z,8.37
2023-05-16T11:42:05.150Z,8.36
2023-05-16T11:43:07.099Z,8.32
2023-05-16T11:44:05.134Z,8.49
2023-05-16T11:45:05.280Z,8.52
2023-05-16T11:46:05.294Z,8.68
2023-05-16T11:47:05.258Z,8.64
2023-05-16T11:48:05.113Z,8.57
2023-05-16T11:49:05.104Z,8.55
2023-05-16T11:50:05.070Z,8.57
2023-05-16T11:51:05.094Z,8.58
2023-05-16T11:52:05.057Z,8.71
2023-05-16T11:53:05.053Z,8.64
2023-05-16T11:54:05.032Z,8.63
2023-05-16T11:55:05.021Z,8.76
2023-05-16T11:56:05.007Z,8.86
2023-05-16T11:57:05.031Z,8.75
2023-05-16T11:58:04.991Z,8.96
2023-05-16T11:59:04.976Z,8.80
2023-05-16T12:00:04.969Z,8.82
2023-05-16T12:01:04.970Z,8.79
2023-05-16T12:02:04.987Z,8.82
2023-05-16T12:03:05.617Z,8.75
2023-05-16T12:04:05.060Z,8.82
2023-05-16T12:05:04.949Z,8.76
2023-05-16T12:06:04.909Z,8.86
2023-05-16T12:07:04.886Z,8.82
2023-05-16T12:08:05.281Z,8.83
2023-05-16T12:09:04.883Z,8.76
2023-05-16T12:10:04.854Z,8.79
2023-05-16T12:11:04.870Z,8.91
2023-05-16T12:12:04.833Z,9.01
2023-05-16T12:13:04.861Z,8.85
2023-05-16T12:14:04.818Z,8.88
2023-05-16T12:15:04.836Z,8.82
2023-05-16T12:16:04.792Z,8.76
2023-05-16T12:17:04.953Z,8.68
2023-05-16T12:18:04.992Z,8.83
2023-05-16T12:19:04.812Z,8.85
2023-05-16T12:20:04.753Z,8.89
2023-05-16T12:21:04.835Z,8.82
2023-05-16T12:22:04.730Z,8.85
2023-05-16T12:23:04.719Z,8.63
2023-05-16T12:24:04.711Z,8.68
2023-05-16T12:25:04.727Z,8.78
2023-05-16T12:26:04.684Z,8.76
2023-05-16T12:27:04.712Z,8.83
2023-05-16T12:28:04.681Z,8.83
2023-05-16T12:29:04.659Z,8.97
2023-05-16T12:30:04.642Z,8.94
2023-05-16T12:31:04.648Z,8.82
2023-05-16T12:32:04.718Z,8.79
2023-05-16T12:33:07.625Z,8.76
2023-05-16T12:34:04.720Z,8.49
2023-05-16T12:35:04.594Z,8.57
2023-05-16T12:36:04.583Z,8.65
2023-05-16T12:37:04.588Z,8.64
2023-05-16T12:38:04.580Z,8.73
2023-05-16T12:39:04.788Z,8.65
2023-05-16T12:40:04.603Z,8.67
2023-05-16T12:41:04.531Z,8.61
2023-05-16T12:42:04.524Z,8.80
2023-05-16T12:43:04.539Z,8.89
2023-05-16T12:44:04.494Z,8.80
2023-05-16T12:45:04.508Z,8.86
2023-05-16T12:46:04.497Z,8.89
2023-05-16T12:47:04.486Z,8.93
2023-05-16T12:48:04.514Z,8.78
2023-05-16T12:49:04.468Z,8.76
2023-05-16T12:50:04.482Z,8.85
2023-05-16T12:51:04.657Z,8.78
2023-05-16T12:52:04.405Z,8.88
2023-05-16T12:53:04.406Z,8.75
2023-05-16T12:54:10.066Z,8.91
2023-05-16T12:55:05.429Z,8.85
2023-05-16T12:56:04.361Z,9.04
2023-05-16T12:57:04.380Z,9.04
2023-05-16T12:58:04.378Z,9.10
2023-05-16T12:59:04.334Z,9.19
2023-05-16T13:00:04.330Z,9.08
2023-05-16T13:01:04.309Z,8.98
2023-05-16T13:02:04.404Z,9.13
2023-05-16T13:03:04.363Z,9.08
2023-05-16T13:04:05.441Z,9.01
2023-05-16T13:05:04.270Z,8.96
2023-05-16T13:06:04.392Z,9.13
2023-05-16T13:07:04.249Z,8.78
2023-05-16T13:08:04.280Z,8.85
2023-05-16T13:09:04.244Z,8.88
2023-05-16T13:10:04.245Z,8.80
2023-05-16T13:11:04.206Z,8.88
2023-05-16T13:12:04.191Z,8.78
2023-05-16T13:13:04.189Z,8.73
2023-05-16T13:14:04.173Z,8.75
2023-05-16T13:15:04.195Z,8.75
2023-05-16T13:16:04.282Z,8.73
2023-05-16T13:17:04.141Z,8.78
2023-05-16T13:18:04.162Z,8.68